Hidden perls of south Europe - Skopje and Ohrid

Are you fed up with overcrowded beaches, overrated world-renowned sights, and hordes of tourists getting in your way? Do you feel you ought to skip the crass tourist traps, grand boulevards, and magnificent buildings and monuments? Then, perhaps it is time you took a journey to Macedonia. Tucked away in a corner of Southeast Europe, Macedonia is a country with idyllic natural surroundings and a somewhat less idyllic history. It has seen much turmoil, conquest, famine, and subsequent immigration in the distant and more recent past. Alexander the Great, the Romans, Byzantines, the Ottomans, and the Communists have all been here and left a mark on the land and its people, leaving behind rich historical attractions.

Airport GND TWR APP Metar
LWSK LWSK 220730Z 00000KT CAVOK 05/02 Q1022 NOSIG
LWOH LWOH 220730Z 00000KT 9999 FEW033 05/01 Q1021

Approved controllers

Coming soon!